Time;durP1;ratioP1;P1;durP2;ratioP2;P2;SDS_P1;SDS_P2;PMS_P1;PMS_P2;Temp;Humidity;BMP_temperature;BMP_pressure;BME280_temperature;BME280_humidity;BME280_pressure;Samples;Min_cycle;Max_cycle;Signal;HPM_P1;HPM_P2
2022/10/19 00:01:37;;;;;;;6.65;3.53;;;10.20;99.90;;;;;;4963602;28;20039;-80
2022/10/19 00:04:03;;;;;;;6.65;3.28;;;10.10;99.90;;;;;;4972490;28;20133;-80
2022/10/19 00:06:31;;;;;;;6.85;2.90;;;10.10;99.90;;;;;;4968175;28;20081;-80
2022/10/19 00:09:12;;;;;;;9.00;3.03;;;10.10;99.90;;;;;;4964614;28;20050;-80
2022/10/19 00:11:40;;;;;;;7.85;2.78;;;10.00;99.90;;;;;;4951587;28;20033;-80
2022/10/19 00:14:07;;;;;;;4.45;2.60;;;10.00;99.90;;;;;;4967500;28;20041;-80
2022/10/19 00:16:36;;;;;;;5.47;2.38;;;9.90;99.90;;;;;;4976194;28;20114;-80
2022/10/19 00:19:05;;;;;;;4.85;2.70;;;9.80;99.90;;;;;;4968783;28;20035;-80
2022/10/19 00:21:31;;;;;;;6.55;2.85;;;9.70;99.90;;;;;;4963106;28;20409;-80
2022/10/19 00:23:56;;;;;;;6.13;2.83;;;9.60;99.90;;;;;;4967587;28;20385;-79
2022/10/19 00:26:22;;;;;;;4.72;2.63;;;9.50;99.90;;;;;;4974840;28;20304;-79
2022/10/19 00:28:48;;;;;;;7.63;3.00;;;9.40;99.90;;;;;;4959744;28;20493;-79
2022/10/19 00:31:16;;;;;;;7.85;2.83;;;9.40;99.90;;;;;;4961324;28;20034;-80
2022/10/19 00:33:45;;;;;;;5.35;2.67;;;9.30;99.90;;;;;;4972810;28;20031;-79
2022/10/19 00:36:24;;;;;;;6.70;3.13;;;9.20;99.90;;;;;;4973872;28;20039;-79
2022/10/19 00:38:50;;;;;;;5.15;3.17;;;9.10;99.90;;;;;;4959793;28;20039;-79
2022/10/19 00:41:17;;;;;;;5.63;3.00;;;9.00;99.90;;;;;;4969303;28;20116;-79
2022/10/19 00:44:12;;;;;;;6.70;3.22;;;9.00;99.90;;;;;;4976046;28;20121;-79
2022/10/19 00:46:43;;;;;;;5.50;3.03;;;8.90;99.90;;;;;;4935140;28;20070;-79
2022/10/19 00:49:16;;;;;;;6.85;3.15;;;8.90;99.90;;;;;;4964782;28;20050;-79
2022/10/19 00:51:46;;;;;;;8.73;3.53;;;8.90;99.90;;;;;;4968675;28;20134;-79
2022/10/19 00:54:14;;;;;;;9.90;3.38;;;8.70;99.90;;;;;;4976471;28;20057;-79
2022/10/19 00:56:42;;;;;;;7.00;3.13;;;8.60;99.90;;;;;;4975982;28;20074;-79
2022/10/19 00:59:09;;;;;;;6.20;3.08;;;8.60;99.90;;;;;;4975579;28;20054;-79
2022/10/19 01:01:35;;;;;;;5.30;2.97;;;8.50;99.90;;;;;;4963384;28;20090;-79
2022/10/19 01:04:02;;;;;;;6.18;3.60;;;8.50;99.90;;;;;;4958494;28;20046;-79
2022/10/19 01:06:28;;;;;;;8.13;3.65;;;8.50;99.90;;;;;;4960540;28;20034;-79
2022/10/19 01:08:54;;;;;;;4.22;2.97;;;8.40;99.90;;;;;;4975798;28;20047;-79
2022/10/19 01:11:47;;;;;;;6.82;3.13;;;8.40;99.90;;;;;;4970081;28;20386;-79
2022/10/19 01:14:36;;;;;;;;;;;8.40;99.90;;;;;;4974278;28;20043;-79
2022/10/19 01:17:27;;;;;;;8.02;2.90;;;8.30;99.90;;;;;;4959840;28;19928;-79
2022/10/19 01:20:14;;;;;;;6.50;3.60;;;8.20;99.90;;;;;;4976480;28;20505;-80
2022/10/19 01:23:07;;;;;;;6.30;3.22;;;8.10;99.90;;;;;;4963544;28;20147;-80
2022/10/19 01:25:52;;;;;;;7.07;3.28;;;8.10;99.90;;;;;;4965534;28;20038;-79
2022/10/19 01:28:45;;;;;;;12.13;3.65;;;8.10;99.90;;;;;;4969305;28;20053;-79
2022/10/19 01:31:26;;;;;;;4.95;3.60;;;8.00;99.90;;;;;;4942980;28;20067;-84
2022/10/19 01:34:03;;;;;;;13.02;5.88;;;8.00;99.90;;;;;;4967605;28;20672;-80
2022/10/19 01:36:52;;;;;;;8.40;4.43;;;8.00;99.90;;;;;;4954189;28;20054;-79
2022/10/19 01:39:29;;;;;;;11.02;4.93;;;8.10;99.90;;;;;;4973839;28;20035;-79
2022/10/19 01:42:22;;;;;;;5.65;3.67;;;8.00;99.90;;;;;;4966796;28;20046;-79
2022/10/19 01:44:59;;;;;;;5.32;3.28;;;8.10;99.90;;;;;;4953894;28;20501;-80
2022/10/19 01:47:32;;;;;;;7.93;4.65;;;8.00;99.90;;;;;;4957930;28;20121;-79
2022/10/19 01:50:09;;;;;;;7.80;5.20;;;8.10;99.90;;;;;;4974343;28;20045;-79
2022/10/19 01:52:36;;;;;;;7.57;4.75;;;8.10;99.90;;;;;;4962957;28;20147;-79
2022/10/19 01:55:04;;;;;;;9.65;4.80;;;8.10;99.90;;;;;;4954978;28;20042;-79
2022/10/19 01:57:33;;;;;;;10.02;5.03;;;8.20;99.90;;;;;;4967687;28;20162;-79
2022/10/19 02:00:06;;;;;;;12.45;5.15;;;8.10;99.90;;;;;;4964264;28;20125;-79
2022/10/19 02:02:35;;;;;;;10.48;6.05;;;8.20;99.90;;;;;;4992012;23;20039;-74
2022/10/19 02:05:03;;;;;;;11.63;5.88;;;8.30;99.90;;;;;;4952576;28;20112;-74
2022/10/19 02:07:30;;;;;;;10.00;5.93;;;8.30;99.90;;;;;;4920706;28;20043;-74
2022/10/19 02:09:56;;;;;;;8.32;5.22;;;8.30;99.90;;;;;;4953294;29;20098;-74
2022/10/19 02:12:24;;;;;;;10.60;5.25;;;8.40;99.90;;;;;;4949416;28;20043;-74
2022/10/19 02:14:54;;;;;;;6.78;5.20;;;8.40;99.90;;;;;;4930894;29;20031;-74
2022/10/19 02:17:25;;;;;;;10.55;5.18;;;8.40;99.90;;;;;;4928463;29;20390;-75
2022/10/19 02:19:52;;;;;;;9.43;4.80;;;8.40;99.90;;;;;;4936354;28;20074;-75
2022/10/19 02:22:18;;;;;;;8.63;4.60;;;8.40;99.90;;;;;;4929655;29;20071;-74
2022/10/19 02:24:44;;;;;;;10.85;5.32;;;8.50;99.90;;;;;;4932530;29;20445;-74
2022/10/19 02:27:10;;;;;;;7.55;4.68;;;8.50;99.90;;;;;;4950702;29;20051;-74
2022/10/19 02:29:37;;;;;;;9.18;5.38;;;8.50;99.90;;;;;;4935088;29;20306;-74
2022/10/19 02:32:03;;;;;;;9.27;5.15;;;8.50;99.90;;;;;;4932581;29;20495;-74
2022/10/19 02:34:29;;;;;;;10.13;5.30;;;8.60;99.90;;;;;;4928792;29;20032;-74
2022/10/19 02:36:55;;;;;;;12.65;5.05;;;8.60;99.90;;;;;;4929242;29;20039;-74
2022/10/19 02:39:21;;;;;;;11.07;5.18;;;8.60;99.90;;;;;;4929222;29;20548;-74
2022/10/19 02:42:10;;;;;;;7.63;4.60;;;8.60;99.90;;;;;;4921755;29;20035;-74
2022/10/19 02:44:42;;;;;;;19.83;6.20;;;8.60;99.90;;;;;;4933625;29;20055;-74
2022/10/19 02:47:15;;;;;;;9.02;4.88;;;8.70;99.90;;;;;;4917913;29;20406;-74
2022/10/19 02:49:42;;;;;;;8.55;5.20;;;8.70;99.90;;;;;;4934441;29;20050;-74
2022/10/19 02:52:10;;;;;;;16.83;5.50;;;8.70;99.90;;;;;;4928251;28;20502;-74
2022/10/19 02:54:38;;;;;;;12.02;5.10;;;8.70;99.90;;;;;;4952696;29;20070;-74
2022/10/19 02:57:16;;;;;;;8.45;4.65;;;8.70;99.90;;;;;;4951797;28;20453;-74
2022/10/19 02:59:44;;;;;;;7.68;4.72;;;8.70;99.90;;;;;;4952373;29;20071;-74
2022/10/19 03:02:10;;;;;;;8.38;4.40;;;8.70;99.90;;;;;;4952432;29;20043;-74
2022/10/19 03:04:35;;;;;;;10.35;4.63;;;8.70;99.90;;;;;;4950691;29;20039;-74
2022/10/19 03:07:01;;;;;;;9.65;4.10;;;8.60;99.90;;;;;;4950440;28;20043;-75
2022/10/19 03:09:29;;;;;;;7.20;4.57;;;8.60;99.90;;;;;;4945709;29;20075;-74
2022/10/19 03:11:55;;;;;;;7.32;4.20;;;8.60;99.90;;;;;;4936717;29;20418;-74
2022/10/19 03:14:21;;;;;;;9.07;4.43;;;8.60;99.90;;;;;;4935765;29;20031;-75
2022/10/19 03:16:46;;;;;;;7.30;4.00;;;8.60;99.90;;;;;;4935983;29;20563;-74
2022/10/19 03:19:12;;;;;;;10.90;4.13;;;8.60;99.90;;;;;;4951900;29;20617;-74
2022/10/19 03:21:38;;;;;;;7.78;4.60;;;8.50;99.90;;;;;;4935835;29;20500;-74
2022/10/19 03:24:04;;;;;;;10.05;4.50;;;8.40;99.90;;;;;;4942086;28;20047;-74
2022/10/19 03:26:29;;;;;;;10.68;4.72;;;8.50;99.90;;;;;;4931089;29;20036;-74
2022/10/19 03:28:55;;;;;;;6.88;4.43;;;8.40;99.90;;;;;;4935850;29;20043;-74
2022/10/19 03:31:21;;;;;;;6.65;4.03;;;8.50;99.90;;;;;;4936321;29;20043;-74
2022/10/19 03:33:46;;;;;;;11.18;4.90;;;8.50;99.90;;;;;;4951999;28;20485;-75
2022/10/19 03:36:27;;;;;;;11.20;4.78;;;8.40;99.90;;;;;;4948909;28;20043;-74
2022/10/19 03:38:58;;;;;;;14.30;4.63;;;8.50;99.90;;;;;;4944117;29;20058;-75
2022/10/19 03:41:29;;;;;;;8.68;4.22;;;8.40;99.90;;;;;;4936167;29;20448;-75
2022/10/19 03:43:56;;;;;;;7.47;4.82;;;8.50;99.90;;;;;;4933498;29;20051;-75
2022/10/19 03:46:22;;;;;;;9.85;4.43;;;8.50;99.90;;;;;;4946848;28;20131;-75
2022/10/19 03:48:48;;;;;;;6.90;4.20;;;8.50;99.90;;;;;;4939913;29;20043;-75
2022/10/19 03:51:17;;;;;;;8.65;4.95;;;8.60;99.90;;;;;;4955964;29;20105;-75
2022/10/19 03:53:43;;;;;;;11.02;4.65;;;8.50;99.90;;;;;;4954593;28;20042;-75
2022/10/19 03:56:18;;;;;;;7.20;4.20;;;8.60;99.90;;;;;;4945261;29;20044;-75
2022/10/19 03:58:45;;;;;;;7.38;4.13;;;8.60;99.90;;;;;;4938509;29;20043;-75
2022/10/19 04:01:17;;;;;;;12.55;5.18;;;8.60;99.90;;;;;;4937290;29;20052;-74
2022/10/19 04:03:43;;;;;;;7.90;3.92;;;8.60;99.90;;;;;;4939803;28;20039;-75
2022/10/19 04:06:13;;;;;;;11.82;4.90;;;8.60;99.90;;;;;;4939436;29;20097;-75
2022/10/19 04:08:39;;;;;;;7.47;4.53;;;8.70;99.90;;;;;;4938735;28;20075;-75
2022/10/19 04:11:11;;;;;;;8.77;4.35;;;8.60;99.90;;;;;;4954477;28;20098;-75
2022/10/19 04:13:38;;;;;;;5.18;4.07;;;8.70;99.90;;;;;;4935826;29;20517;-75
2022/10/19 04:16:04;;;;;;;8.50;4.90;;;8.60;99.90;;;;;;4939250;29;20124;-75
2022/10/19 04:18:29;;;;;;;9.95;4.57;;;8.60;99.90;;;;;;4955191;29;20043;-75
2022/10/19 04:21:00;;;;;;;8.10;4.32;;;8.70;99.90;;;;;;4938525;28;20039;-75
2022/10/19 04:23:28;;;;;;;7.60;3.97;;;8.70;99.90;;;;;;4954168;28;20494;-75
2022/10/19 04:26:01;;;;;;;8.32;4.25;;;8.70;99.90;;;;;;4944276;28;20047;-75
2022/10/19 04:28:28;;;;;;;8.02;4.07;;;8.60;99.90;;;;;;4934752;29;20032;-74
2022/10/19 04:30:53;;;;;;;8.02;3.97;;;8.70;99.90;;;;;;4920132;29;20071;-75
2022/10/19 04:33:19;;;;;;;6.95;4.20;;;8.60;99.90;;;;;;4919660;28;20036;-74
2022/10/19 04:35:45;;;;;;;8.93;4.35;;;8.70;99.90;;;;;;4969992;28;20050;-74
2022/10/19 04:38:10;;;;;;;9.43;4.78;;;8.70;99.90;;;;;;4935754;29;20040;-74
2022/10/19 04:40:36;;;;;;;8.95;4.38;;;8.60;99.90;;;;;;4933381;29;20130;-74
2022/10/19 04:43:03;;;;;;;8.55;4.30;;;8.60;99.90;;;;;;4919868;29;20051;-74
2022/10/19 04:45:29;;;;;;;11.65;4.78;;;8.60;99.90;;;;;;4952585;28;20075;-74
2022/10/19 04:47:57;;;;;;;8.13;4.68;;;8.60;99.90;;;;;;4938517;29;20040;-75
2022/10/19 04:50:24;;;;;;;9.75;4.13;;;8.60;99.90;;;;;;4938862;29;20134;-75
2022/10/19 04:52:50;;;;;;;13.57;4.78;;;8.60;99.90;;;;;;4938218;29;20067;-75
2022/10/19 04:55:16;;;;;;;14.57;4.35;;;8.60;99.90;;;;;;4934773;29;20046;-75
2022/10/19 04:57:42;;;;;;;10.43;4.00;;;8.60;99.90;;;;;;4932916;29;20130;-75
2022/10/19 05:00:08;;;;;;;6.90;4.00;;;8.70;99.90;;;;;;4939100;29;20078;-75
2022/10/19 05:02:34;;;;;;;8.68;3.95;;;8.70;99.90;;;;;;4934226;29;20054;-74
2022/10/19 05:04:59;;;;;;;9.38;3.85;;;8.70;99.90;;;;;;4928848;29;20043;-74
2022/10/19 05:07:25;;;;;;;9.25;3.92;;;8.70;99.90;;;;;;4953616;28;20049;-75
2022/10/19 05:09:51;;;;;;;6.82;3.10;;;8.80;99.90;;;;;;4954896;29;20035;-75
2022/10/19 05:12:16;;;;;;;6.68;3.30;;;8.80;99.90;;;;;;4930578;29;20039;-74
2022/10/19 05:14:42;;;;;;;6.63;2.63;;;8.80;99.90;;;;;;4937894;29;20101;-74
2022/10/19 05:17:07;;;;;;;6.18;2.78;;;8.70;99.90;;;;;;4952040;29;20085;-75
2022/10/19 05:19:33;;;;;;;10.20;3.20;;;8.80;99.90;;;;;;4935246;29;20491;-74
2022/10/19 05:21:59;;;;;;;8.00;3.00;;;8.80;99.90;;;;;;4941851;28;20079;-75
2022/10/19 05:24:24;;;;;;;6.50;3.05;;;8.80;99.90;;;;;;4952933;28;20047;-74
2022/10/19 05:26:50;;;;;;;7.05;3.60;;;8.80;99.90;;;;;;4952919;29;20078;-74
2022/10/19 05:29:16;;;;;;;6.43;2.80;;;8.80;99.90;;;;;;4937933;29;20039;-74
2022/10/19 05:31:41;;;;;;;8.77;3.15;;;8.80;99.90;;;;;;4951193;28;20043;-74
2022/10/19 05:34:07;;;;;;;9.45;3.20;;;8.80;99.90;;;;;;4937277;29;20490;-76
2022/10/19 05:36:39;;;;;;;6.47;2.90;;;8.70;99.90;;;;;;4937985;29;20036;-76
2022/10/19 05:39:16;;;;;;;10.27;3.42;;;8.70;99.90;;;;;;4936719;29;20880;-77
2022/10/19 05:41:44;;;;;;;8.52;3.72;;;8.70;99.90;;;;;;4928915;29;20509;-75
2022/10/19 05:44:18;;;;;;;6.15;2.67;;;8.70;99.90;;;;;;4951360;28;20507;-75
2022/10/19 05:46:44;;;;;;;6.82;2.90;;;8.70;99.90;;;;;;4930345;29;20505;-75
2022/10/19 05:49:11;;;;;;;9.18;4.00;;;8.70;99.90;;;;;;4952045;28;20078;-75
2022/10/19 05:51:40;;;;;;;9.15;2.95;;;8.70;99.90;;;;;;4939419;29;20046;-75
2022/10/19 05:54:07;;;;;;;12.95;3.65;;;8.70;99.90;;;;;;4932630;28;20515;-76
2022/10/19 05:56:33;;;;;;;6.20;2.85;;;8.70;99.90;;;;;;4934953;29;20402;-76
2022/10/19 05:59:01;;;;;;;8.07;2.60;;;8.60;99.90;;;;;;4953396;29;20043;-75
2022/10/19 06:01:28;;;;;;;5.93;2.75;;;8.60;99.90;;;;;;4936580;29;20043;-75
2022/10/19 06:03:56;;;;;;;7.95;2.70;;;8.60;99.90;;;;;;4937351;29;20043;-75
2022/10/19 06:06:23;;;;;;;9.57;3.55;;;8.70;99.90;;;;;;4937114;29;20525;-76
2022/10/19 06:08:49;;;;;;;6.28;3.13;;;8.60;99.90;;;;;;4937287;29;20039;-75
2022/10/19 06:11:24;;;;;;;5.88;2.65;;;8.60;99.90;;;;;;4937480;29;20102;-75
2022/10/19 06:13:53;;;;;;;8.43;2.65;;;8.60;99.90;;;;;;4937458;29;20683;-75
2022/10/19 06:16:25;;;;;;;11.55;3.08;;;8.70;99.90;;;;;;4952653;28;20031;-75
2022/10/19 06:18:52;;;;;;;8.23;3.15;;;8.70;99.90;;;;;;4937297;29;20130;-75
2022/10/19 06:21:21;;;;;;;6.82;2.72;;;8.70;99.90;;;;;;4949874;28;20067;-75
2022/10/19 06:23:51;;;;;;;7.78;3.47;;;8.70;99.90;;;;;;4934428;29;20078;-75
2022/10/19 06:26:17;;;;;;;7.20;3.38;;;8.80;99.90;;;;;;4936167;29;20406;-76
2022/10/19 06:28:43;;;;;;;8.20;3.47;;;8.70;99.90;;;;;;4949367;29;20035;-75
2022/10/19 06:31:10;;;;;;;9.95;3.70;;;8.80;99.90;;;;;;4935590;29;20047;-75
2022/10/19 06:33:43;;;;;;;9.45;4.15;;;8.90;99.90;;;;;;4937306;29;20081;-75
2022/10/19 06:36:11;;;;;;;7.03;3.38;;;8.90;99.90;;;;;;4936143;29;20098;-76
2022/10/19 06:38:37;;;;;;;8.43;3.10;;;8.90;99.90;;;;;;4933035;29;20589;-76
2022/10/19 06:41:03;;;;;;;6.25;3.17;;;8.90;99.90;;;;;;4950683;29;20130;-75
2022/10/19 06:43:29;;;;;;;10.80;3.28;;;9.00;99.90;;;;;;4936933;29;20447;-76
2022/10/19 06:45:55;;;;;;;10.23;3.17;;;9.10;99.90;;;;;;4937008;29;20079;-75
2022/10/19 06:48:21;;;;;;;9.18;3.00;;;9.10;99.90;;;;;;4935847;29;20513;-75
2022/10/19 06:50:55;;;;;;;7.22;3.17;;;9.10;99.90;;;;;;4936504;29;20039;-75
2022/10/19 06:53:21;;;;;;;6.93;3.17;;;9.10;99.90;;;;;;4936871;29;20130;-75
2022/10/19 06:55:46;;;;;;;9.77;3.35;;;9.20;99.90;;;;;;4936694;29;20129;-75
2022/10/19 06:58:12;;;;;;;8.32;3.47;;;9.30;99.90;;;;;;4951287;28;20066;-75
2022/10/19 07:00:40;;;;;;;14.05;2.80;;;9.30;99.90;;;;;;4936400;29;20094;-75
2022/10/19 07:03:11;;;;;;;9.40;2.45;;;9.30;99.90;;;;;;4937037;29;20101;-75
2022/10/19 07:05:36;;;;;;;7.43;2.40;;;9.40;99.90;;;;;;4936678;29;20054;-75
2022/10/19 07:08:02;;;;;;;8.30;2.42;;;9.40;99.90;;;;;;4935263;29;20043;-75
2022/10/19 07:10:28;;;;;;;8.13;2.40;;;9.40;99.90;;;;;;4936180;29;20086;-75
2022/10/19 07:12:55;;;;;;;7.70;2.67;;;9.50;99.90;;;;;;4936726;29;20414;-75
2022/10/19 07:15:20;;;;;;;7.13;3.00;;;9.50;99.90;;;;;;4936502;29;20050;-75
2022/10/19 07:17:46;;;;;;;10.90;3.50;;;9.60;99.90;;;;;;4935492;29;20039;-75
2022/10/19 07:20:12;;;;;;;11.32;3.10;;;9.60;99.90;;;;;;4951950;28;20042;-75
2022/10/19 07:22:37;;;;;;;8.75;2.50;;;9.70;99.90;;;;;;4936255;29;20043;-75
2022/10/19 07:25:06;;;;;;;8.63;2.40;;;9.80;99.90;;;;;;4936185;29;20114;-76
2022/10/19 07:27:38;;;;;;;8.52;2.28;;;9.80;99.90;;;;;;4951506;28;20042;-76
2022/10/19 07:30:07;;;;;;;9.57;2.50;;;9.80;99.90;;;;;;4936632;29;20043;-76
2022/10/19 07:32:38;;;;;;;8.43;2.95;;;9.90;99.90;;;;;;4936511;29;20533;-75
2022/10/19 07:35:04;;;;;;;7.20;2.35;;;9.90;99.90;;;;;;4936360;29;20061;-75
2022/10/19 07:37:30;;;;;;;9.25;2.53;;;10.00;99.90;;;;;;4951273;28;20172;-75
2022/10/19 07:39:59;;;;;;;7.85;2.08;;;10.00;99.90;;;;;;4936184;29;20130;-76
2022/10/19 07:42:29;;;;;;;6.80;1.95;;;10.10;99.90;;;;;;4936833;29;20039;-75
2022/10/19 07:44:57;;;;;;;9.05;2.35;;;10.10;99.90;;;;;;4952570;29;20304;-76
2022/10/19 07:47:23;;;;;;;10.27;2.65;;;10.20;99.90;;;;;;4932153;28;20122;-76
2022/10/19 07:49:51;;;;;;;6.35;1.60;;;10.20;99.90;;;;;;4950477;28;20119;-77
2022/10/19 07:52:17;;;;;;;7.47;2.08;;;10.30;99.90;;;;;;4932947;28;20042;-76
2022/10/19 07:54:43;;;;;;;7.60;2.03;;;10.40;99.90;;;;;;4942270;28;20118;-75
2022/10/19 07:57:11;;;;;;;9.35;2.55;;;10.40;99.90;;;;;;4948691;28;20093;-75
2022/10/19 07:59:37;;;;;;;9.13;1.98;;;10.40;99.90;;;;;;4937779;29;20039;-75
2022/10/19 08:02:03;;;;;;;4.38;1.65;;;10.50;99.90;;;;;;4983381;23;20047;-76
2022/10/19 08:04:29;;;;;;;6.13;1.67;;;10.60;99.90;;;;;;4958423;28;20034;-79
2022/10/19 08:06:55;;;;;;;7.45;1.70;;;10.60;99.90;;;;;;4992474;28;20081;-79
2022/10/19 08:09:20;;;;;;;7.65;1.67;;;10.70;99.90;;;;;;4989049;28;20058;-78
2022/10/19 08:11:46;;;;;;;11.23;1.70;;;10.70;99.90;;;;;;4974774;28;20035;-78
2022/10/19 08:14:12;;;;;;;10.95;1.90;;;10.80;99.90;;;;;;4945622;28;20043;-78
2022/10/19 08:16:43;;;;;;;8.05;1.95;;;10.80;99.90;;;;;;4970076;28;20689;-79
2022/10/19 08:19:14;;;;;;;6.85;1.35;;;11.00;99.90;;;;;;4954345;28;20038;-78
2022/10/19 08:21:45;;;;;;;4.22;1.40;;;10.90;99.90;;;;;;4947813;28;20515;-78
2022/10/19 08:24:12;;;;;;;6.10;1.35;;;10.90;99.90;;;;;;4946459;28;20092;-78
2022/10/19 08:26:39;;;;;;;9.20;1.60;;;11.00;99.90;;;;;;4971837;28;20442;-78
2022/10/19 08:29:07;;;;;;;7.80;1.58;;;11.10;99.90;;;;;;4952692;28;20043;-79
2022/10/19 08:31:33;;;;;;;7.70;1.30;;;11.00;99.90;;;;;;4961720;28;20066;-79
2022/10/19 08:33:59;;;;;;;6.65;1.48;;;11.10;99.90;;;;;;4954925;28;20485;-78
2022/10/19 08:36:25;;;;;;;5.68;1.85;;;11.10;99.90;;;;;;4956472;28;20043;-79
2022/10/19 08:38:52;;;;;;;8.20;1.48;;;11.10;99.90;;;;;;4972507;28;20041;-79
2022/10/19 08:41:24;;;;;;;7.40;1.65;;;11.20;99.90;;;;;;4945314;28;20404;-79
2022/10/19 08:43:58;;;;;;;7.73;1.60;;;11.20;99.90;;;;;;4951814;28;20035;-79
2022/10/19 08:46:45;;;;;;;7.82;1.10;;;11.30;99.90;;;;;;4950441;28;20058;-81
2022/10/19 08:49:18;;;;;;;7.13;1.80;;;11.30;99.90;;;;;;4955962;28;20046;-81
2022/10/19 08:51:50;;;;;;;6.43;1.30;;;11.40;99.90;;;;;;4955122;28;20133;-80
2022/10/19 08:54:17;;;;;;;7.80;1.48;;;11.40;99.90;;;;;;4953414;28;20035;-81
2022/10/19 08:57:25;;;;;;;10.10;1.58;;;11.50;99.90;;;;;;4969080;28;20393;-80
2022/10/19 09:00:15;;;;;;;10.68;2.03;;;11.50;99.90;;;;;;4958129;28;20039;-81
2022/10/19 09:02:59;;;;;;;8.55;1.38;;;11.60;99.90;;;;;;4972866;28;20042;-81
2022/10/19 09:05:38;;;;;;;7.90;1.40;;;11.70;99.90;;;;;;4969628;28;20042;-81
2022/10/19 09:08:04;;;;;;;6.30;1.58;;;11.80;99.90;;;;;;4953050;28;20125;-81
2022/10/19 09:10:37;;;;;;;7.90;1.40;;;11.80;99.90;;;;;;4951629;28;20122;-81
2022/10/19 09:13:41;;;;;;;8.32;1.42;;;11.90;99.90;;;;;;4953118;28;20035;-80
2022/10/19 09:16:12;;;;;;;5.30;1.15;;;12.00;99.90;;;;;;4957635;28;20186;-80
2022/10/19 09:18:38;;;;;;;7.32;1.40;;;12.00;99.90;;;;;;4958421;28;20560;-81
2022/10/19 09:21:09;;;;;;;6.13;1.60;;;12.10;99.90;;;;;;4972230;28;20043;-81
2022/10/19 09:23:39;;;;;;;9.50;1.67;;;12.10;99.90;;;;;;4952553;28;20511;-81
2022/10/19 09:26:15;;;;;;;9.45;1.63;;;12.20;99.90;;;;;;4958164;28;20119;-81
2022/10/19 09:28:59;;;;;;;7.00;1.52;;;12.30;99.90;;;;;;4958334;28;20089;-81
2022/10/19 09:31:32;;;;;;;6.40;1.65;;;12.30;99.90;;;;;;4969285;28;20062;-81
2022/10/19 09:34:12;;;;;;;9.45;1.83;;;12.40;99.90;;;;;;4963963;28;20045;-81
2022/10/19 09:36:43;;;;;;;8.35;1.35;;;12.40;99.90;;;;;;4973756;28;20497;-82
2022/10/19 09:39:12;;;;;;;6.63;1.27;;;12.40;99.90;;;;;;4966693;28;20401;-81
2022/10/19 09:41:50;;;;;;;6.28;1.00;;;12.50;99.90;;;;;;4974327;28;20070;-80
2022/10/19 09:44:17;;;;;;;7.22;1.50;;;12.50;99.90;;;;;;4957994;28;20042;-81
2022/10/19 09:46:52;;;;;;;8.45;1.67;;;12.60;99.90;;;;;;4973205;28;20577;-81
2022/10/19 09:49:36;;;;;;;6.95;1.42;;;12.50;99.90;;;;;;4954157;28;20077;-81
2022/10/19 09:52:02;;;;;;;6.43;1.50;;;12.50;99.90;;;;;;4971297;28;20097;-81
2022/10/19 09:54:37;;;;;;;10.43;2.20;;;12.40;99.90;;;;;;4968832;28;20035;-81
2022/10/19 09:57:04;;;;;;;6.25;1.15;;;12.50;99.90;;;;;;4949490;28;20039;-83
2022/10/19 09:59:34;;;;;;;9.25;1.48;;;12.50;99.90;;;;;;4958278;28;20043;-81
2022/10/19 10:02:18;;;;;;;8.93;1.52;;;12.50;99.90;;;;;;4952306;28;20046;-82
2022/10/19 10:05:05;;;;;;;6.32;1.23;;;12.60;99.90;;;;;;4948287;28;20122;-81
2022/10/19 10:07:38;;;;;;;3.38;0.93;;;12.70;99.90;;;;;;4957710;28;20042;-81
2022/10/19 10:10:29;;;;;;;4.43;1.08;;;12.90;99.90;;;;;;4958720;28;20050;-81
2022/10/19 10:12:58;;;;;;;6.10;1.15;;;13.00;99.90;;;;;;4956993;28;20158;-82
2022/10/19 10:15:27;;;;;;;4.40;1.05;;;13.10;99.90;;;;;;4950707;28;20038;-81
2022/10/19 10:17:55;;;;;;;8.70;1.58;;;13.10;99.90;;;;;;4974600;28;20054;-81
2022/10/19 10:20:28;;;;;;;8.27;1.50;;;12.90;99.90;;;;;;4958412;28;20117;-83
2022/10/19 10:23:04;;;;;;;8.70;1.50;;;12.90;99.90;;;;;;4973245;28;20051;-82
2022/10/19 10:25:35;;;;;;;6.60;1.63;;;13.00;99.90;;;;;;4952188;28;20039;-81
2022/10/19 10:28:22;;;;;;;8.68;2.08;;;13.00;99.90;;;;;;4958594;28;20054;-81
2022/10/19 10:30:53;;;;;;;6.88;1.55;;;13.10;99.90;;;;;;4974438;28;20405;-81
2022/10/19 10:33:25;;;;;;;8.38;2.28;;;13.40;99.90;;;;;;4955811;28;20035;-81
2022/10/19 10:35:54;;;;;;;7.93;1.57;;;13.90;99.90;;;;;;4951139;28;20065;-84
2022/10/19 10:38:35;;;;;;;5.30;0.93;;;14.30;99.90;;;;;;4938716;29;20077;-83
2022/10/19 10:41:27;;;;;;;6.85;1.20;;;14.30;99.90;;;;;;4939248;28;20039;-82
2022/10/19 10:44:02;;;;;;;6.53;1.48;;;14.40;99.90;;;;;;4952449;28;20421;-82
2022/10/19 10:46:34;;;;;;;4.07;1.30;;;14.60;99.90;;;;;;4975816;28;20503;-83
2022/10/19 10:49:15;;;;;;;6.28;1.23;;;14.90;99.90;;;;;;4972209;28;20114;-81
2022/10/19 10:51:49;;;;;;;7.55;1.23;;;15.00;99.90;;;;;;4962873;28;20043;-81
2022/10/19 10:54:17;;;;;;;5.05;1.00;;;15.10;99.90;;;;;;4945757;28;20464;-83
2022/10/19 10:56:53;;;;;;;5.68;1.10;;;15.10;99.90;;;;;;4972215;28;20030;-80
2022/10/19 10:59:35;;;;;;;4.65;1.25;;;15.00;99.90;;;;;;4946606;28;20555;-80
2022/10/19 11:02:22;;;;;;;4.47;1.05;;;15.10;99.90;;;;;;4965420;28;20113;-79
2022/10/19 11:04:55;;;;;;;5.88;1.17;;;14.90;99.90;;;;;;4971589;28;20039;-79
2022/10/19 11:07:23;;;;;;;7.65;1.27;;;15.00;99.90;;;;;;4965230;28;20031;-81
2022/10/19 11:09:56;;;;;;;5.60;1.33;;;14.80;99.90;;;;;;4953111;28;20046;-79
2022/10/19 11:12:35;;;;;;;5.50;1.38;;;14.70;99.90;;;;;;4955676;28;20034;-80
2022/10/19 11:15:13;;;;;;;4.70;1.50;;;14.70;99.90;;;;;;4972181;28;20397;-77
2022/10/19 11:17:50;;;;;;;4.50;0.90;;;14.60;99.90;;;;;;4948424;28;20128;-76
2022/10/19 11:20:16;;;;;;;4.32;0.90;;;14.50;99.90;;;;;;4953683;28;20062;-77
2022/10/19 11:23:17;;;;;;;5.45;1.40;;;14.60;99.90;;;;;;4962391;28;20031;-77
2022/10/19 11:26:12;;;;;;;5.60;0.90;;;14.70;99.90;;;;;;4959042;28;20035;-77
2022/10/19 11:29:05;;;;;;;5.28;1.50;;;14.80;99.90;;;;;;4970225;28;20039;-78
2022/10/19 11:31:44;;;;;;;5.32;1.67;;;14.90;99.90;;;;;;4953968;28;20039;-77
2022/10/19 11:34:35;;;;;;;7.43;1.60;;;14.90;99.90;;;;;;4975742;28;20126;-79
2022/10/19 11:37:19;;;;;;;3.97;1.13;;;14.90;99.90;;;;;;4966703;28;20046;-78
2022/10/19 11:40:11;;;;;;;3.78;1.00;;;15.00;99.90;;;;;;4966112;28;20549;-77
2022/10/19 11:42:43;;;;;;;8.07;1.42;;;15.00;99.90;;;;;;4952763;28;20118;-77
2022/10/19 11:45:24;;;;;;;5.00;1.35;;;15.00;99.90;;;;;;4955367;28;20239;-78
2022/10/19 11:48:21;;;;;;;8.82;1.52;;;15.00;99.90;;;;;;4962518;28;20027;-78
2022/10/19 11:51:11;;;;;;;4.10;1.00;;;14.90;99.90;;;;;;4963991;28;20481;-77
2022/10/19 11:54:04;;;;;;;6.93;1.20;;;14.80;99.90;;;;;;4970025;28;20043;-78
2022/10/19 11:56:39;;;;;;;4.75;1.42;;;14.80;99.90;;;;;;4953695;28;20123;-77
2022/10/19 11:59:21;;;;;;;6.53;1.42;;;14.70;99.90;;;;;;4960928;28;20043;-75
2022/10/19 12:01:56;;;;;;;5.35;1.17;;;14.60;99.90;;;;;;4965895;28;20130;-76
2022/10/19 12:04:34;;;;;;;6.55;1.48;;;14.60;99.90;;;;;;4970520;28;20392;-77
2022/10/19 12:07:23;;;;;;;7.57;1.90;;;14.70;99.90;;;;;;4964753;28;20047;-77
2022/10/19 12:10:12;;;;;;;7.13;1.40;;;14.60;99.90;;;;;;4945859;29;20058;-76
2022/10/19 12:12:44;;;;;;;4.93;1.80;;;14.40;99.90;;;;;;4983423;28;20038;-77
2022/10/19 12:15:10;;;;;;;4.93;1.67;;;14.30;99.90;;;;;;4960619;28;20031;-76
2022/10/19 12:17:38;;;;;;;7.68;1.98;;;14.20;99.90;;;;;;4971403;28;20113;-76
2022/10/19 12:20:13;;;;;;;7.18;1.75;;;14.30;99.90;;;;;;4958833;28;20062;-76
2022/10/19 12:22:39;;;;;;;6.55;1.75;;;14.30;99.90;;;;;;4958576;28;20045;-76
2022/10/19 12:25:05;;;;;;;5.47;1.63;;;14.30;99.90;;;;;;4974673;28;20135;-76
2022/10/19 12:27:34;;;;;;;8.13;1.90;;;14.40;99.90;;;;;;4965713;28;20126;-77
2022/10/19 12:30:12;;;;;;;5.20;1.70;;;14.40;99.90;;;;;;4974611;28;20117;-77
2022/10/19 12:32:49;;;;;;;5.47;1.98;;;14.40;99.90;;;;;;4958593;28;20035;-77
2022/10/19 12:35:26;;;;;;;6.15;1.83;;;14.30;99.90;;;;;;4974791;28;20042;-76
2022/10/19 12:38:38;;;;;;;7.18;1.58;;;14.30;99.90;;;;;;4963471;28;20052;-76
2022/10/19 12:41:24;;;;;;;5.85;1.90;;;14.20;99.90;;;;;;4972166;28;20042;-75
2022/10/19 12:44:07;;;;;;;8.63;2.58;;;14.10;99.90;;;;;;4972368;28;20121;-77
2022/10/19 12:46:44;;;;;;;6.95;1.90;;;13.90;99.90;;;;;;4958193;28;20039;-76
2022/10/19 12:49:25;;;;;;;5.82;1.70;;;13.80;99.90;;;;;;4969508;28;20039;-75
2022/10/19 12:51:52;;;;;;;6.18;1.70;;;13.70;99.90;;;;;;4955099;28;20390;-76
2022/10/19 12:54:23;;;;;;;4.85;1.60;;;13.60;99.90;;;;;;4961513;28;20042;-76
2022/10/19 12:56:52;;;;;;;6.00;1.48;;;13.60;99.90;;;;;;4965716;28;20041;-77
2022/10/19 12:59:27;;;;;;;5.55;1.63;;;13.60;99.90;;;;;;4973728;28;20046;-78
2022/10/19 13:01:55;;;;;;;5.05;1.88;;;13.70;99.90;;;;;;4956551;28;20070;-78
2022/10/19 13:04:25;;;;;;;6.72;1.92;;;13.80;99.90;;;;;;4955479;28;20078;-75
2022/10/19 13:06:56;;;;;;;4.47;1.65;;;13.90;99.90;;;;;;4973240;28;20397;-75
2022/10/19 13:09:37;;;;;;;8.30;2.63;;;13.90;99.90;;;;;;4973752;28;20586;-76
2022/10/19 13:12:15;;;;;;;6.93;1.92;;;14.00;99.90;;;;;;4965120;28;20442;-76
2022/10/19 13:14:56;;;;;;;5.63;1.58;;;13.90;99.90;;;;;;4957238;28;20039;-77